sensor_id;sensor_type;location;lat;lon;timestamp;P1;durP1;ratioP1;P2;durP2;ratioP2
64188;SDS011;50493;50.970;10.082;2023-01-30T00:00:47;27.90;;;12.60;;
64188;SDS011;50493;50.970;10.082;2023-01-30T00:03:14;30.48;;;11.45;;
64188;SDS011;50493;50.970;10.082;2023-01-30T00:05:39;20.27;;;9.00;;
64188;SDS011;50493;50.970;10.082;2023-01-30T00:08:05;28.90;;;12.47;;
64188;SDS011;50493;50.970;10.082;2023-01-30T00:10:30;29.75;;;12.85;;
64188;SDS011;50493;50.970;10.082;2023-01-30T00:12:55;28.88;;;12.05;;
64188;SDS011;50493;50.970;10.082;2023-01-30T00:15:20;36.65;;;13.57;;
64188;SDS011;50493;50.970;10.082;2023-01-30T00:17:48;33.80;;;13.88;;
64188;SDS011;50493;50.970;10.082;2023-01-30T00:20:13;32.72;;;13.15;;
64188;SDS011;50493;50.970;10.082;2023-01-30T00:22:38;35.88;;;13.82;;
64188;SDS011;50493;50.970;10.082;2023-01-30T00:25:04;35.08;;;15.38;;
64188;SDS011;50493;50.970;10.082;2023-01-30T00:27:30;32.22;;;13.77;;
64188;SDS011;50493;50.970;10.082;2023-01-30T00:29:55;31.02;;;12.05;;
64188;SDS011;50493;50.970;10.082;2023-01-30T00:32:20;31.30;;;11.57;;
64188;SDS011;50493;50.970;10.082;2023-01-30T00:34:49;34.90;;;14.32;;
64188;SDS011;50493;50.970;10.082;2023-01-30T00:37:14;30.42;;;11.55;;
64188;SDS011;50493;50.970;10.082;2023-01-30T00:39:39;30.90;;;13.00;;
64188;SDS011;50493;50.970;10.082;2023-01-30T00:42:04;31.85;;;11.88;;
64188;SDS011;50493;50.970;10.082;2023-01-30T00:44:49;27.90;;;11.70;;
64188;SDS011;50493;50.970;10.082;2023-01-30T00:47:32;36.28;;;14.85;;
64188;SDS011;50493;50.970;10.082;2023-01-30T00:49:59;29.00;;;11.80;;
64188;SDS011;50493;50.970;10.082;2023-01-30T00:52:24;37.88;;;14.30;;
64188;SDS011;50493;50.970;10.082;2023-01-30T00:54:50;28.02;;;10.85;;
64188;SDS011;50493;50.970;10.082;2023-01-30T00:57:16;36.72;;;13.50;;
64188;SDS011;50493;50.970;10.082;2023-01-30T00:59:41;32.67;;;12.00;;
64188;SDS011;50493;50.970;10.082;2023-01-30T01:02:06;34.17;;;13.77;;
64188;SDS011;50493;50.970;10.082;2023-01-30T01:04:32;34.35;;;12.77;;
64188;SDS011;50493;50.970;10.082;2023-01-30T01:07:08;27.45;;;10.32;;
64188;SDS011;50493;50.970;10.082;2023-01-30T01:09:34;38.03;;;15.65;;
64188;SDS011;50493;50.970;10.082;2023-01-30T01:11:59;36.90;;;12.90;;
64188;SDS011;50493;50.970;10.082;2023-01-30T01:14:24;36.93;;;15.47;;
64188;SDS011;50493;50.970;10.082;2023-01-30T01:16:50;33.83;;;12.65;;
64188;SDS011;50493;50.970;10.082;2023-01-30T01:19:15;31.25;;;12.73;;
64188;SDS011;50493;50.970;10.082;2023-01-30T01:21:40;29.75;;;12.10;;
64188;SDS011;50493;50.970;10.082;2023-01-30T01:24:08;29.33;;;12.93;;
64188;SDS011;50493;50.970;10.082;2023-01-30T01:26:36;31.33;;;14.02;;
64188;SDS011;50493;50.970;10.082;2023-01-30T01:29:02;35.03;;;11.77;;
64188;SDS011;50493;50.970;10.082;2023-01-30T01:31:27;33.40;;;14.50;;
64188;SDS011;50493;50.970;10.082;2023-01-30T01:33:52;30.08;;;12.05;;
64188;SDS011;50493;50.970;10.082;2023-01-30T01:36:18;34.30;;;14.23;;
64188;SDS011;50493;50.970;10.082;2023-01-30T01:38:43;31.70;;;12.20;;
64188;SDS011;50493;50.970;10.082;2023-01-30T01:41:10;31.02;;;13.32;;
64188;SDS011;50493;50.970;10.082;2023-01-30T01:43:37;34.00;;;13.38;;
64188;SDS011;50493;50.970;10.082;2023-01-30T01:46:22;24.38;;;9.10;;
64188;SDS011;50493;50.970;10.082;2023-01-30T01:48:51;21.27;;;8.98;;
64188;SDS011;50493;50.970;10.082;2023-01-30T01:51:21;35.17;;;13.80;;
64188;SDS011;50493;50.970;10.082;2023-01-30T01:53:53;35.83;;;13.88;;
64188;SDS011;50493;50.970;10.082;2023-01-30T01:56:24;31.75;;;12.48;;
64188;SDS011;50493;50.970;10.082;2023-01-30T01:58:51;31.17;;;12.95;;
64188;SDS011;50493;50.970;10.082;2023-01-30T02:01:21;29.67;;;12.30;;
64188;SDS011;50493;50.970;10.082;2023-01-30T02:03:48;27.42;;;11.63;;
64188;SDS011;50493;50.970;10.082;2023-01-30T02:06:27;33.25;;;13.70;;
64188;SDS011;50493;50.970;10.082;2023-01-30T02:08:54;31.88;;;11.80;;
64188;SDS011;50493;50.970;10.082;2023-01-30T02:11:25;33.22;;;13.52;;
64188;SDS011;50493;50.970;10.082;2023-01-30T02:13:55;32.20;;;12.70;;
64188;SDS011;50493;50.970;10.082;2023-01-30T02:16:21;32.97;;;13.68;;
64188;SDS011;50493;50.970;10.082;2023-01-30T02:18:47;33.03;;;13.25;;
64188;SDS011;50493;50.970;10.082;2023-01-30T02:27:15;31.55;;;12.57;;
64188;SDS011;50493;50.970;10.082;2023-01-30T02:29:50;25.08;;;10.32;;
64188;SDS011;50493;50.970;10.082;2023-01-30T02:32:33;29.77;;;11.40;;
64188;SDS011;50493;50.970;10.082;2023-01-30T02:35:02;27.80;;;12.55;;
64188;SDS011;50493;50.970;10.082;2023-01-30T02:37:35;28.90;;;11.32;;
64188;SDS011;50493;50.970;10.082;2023-01-30T02:40:15;30.80;;;12.63;;
64188;SDS011;50493;50.970;10.082;2023-01-30T02:42:51;26.60;;;10.07;;
64188;SDS011;50493;50.970;10.082;2023-01-30T02:45:28;25.17;;;9.50;;
64188;SDS011;50493;50.970;10.082;2023-01-30T02:47:59;29.58;;;12.05;;
64188;SDS011;50493;50.970;10.082;2023-01-30T02:50:27;31.23;;;11.98;;
64188;SDS011;50493;50.970;10.082;2023-01-30T02:52:57;28.23;;;11.05;;
64188;SDS011;50493;50.970;10.082;2023-01-30T02:55:23;31.08;;;12.80;;
64188;SDS011;50493;50.970;10.082;2023-01-30T02:57:51;32.72;;;14.27;;
64188;SDS011;50493;50.970;10.082;2023-01-30T03:00:17;25.08;;;10.20;;
64188;SDS011;50493;50.970;10.082;2023-01-30T03:03:07;29.30;;;12.68;;
64188;SDS011;50493;50.970;10.082;2023-01-30T03:05:57;28.52;;;11.27;;
64188;SDS011;50493;50.970;10.082;2023-01-30T03:08:36;30.60;;;12.95;;
64188;SDS011;50493;50.970;10.082;2023-01-30T03:11:10;26.67;;;11.13;;
64188;SDS011;50493;50.970;10.082;2023-01-30T03:13:40;26.20;;;11.43;;
64188;SDS011;50493;50.970;10.082;2023-01-30T03:16:12;32.17;;;12.77;;
64188;SDS011;50493;50.970;10.082;2023-01-30T03:18:44;26.05;;;10.70;;
64188;SDS011;50493;50.970;10.082;2023-01-30T03:21:11;26.05;;;9.65;;
64188;SDS011;50493;50.970;10.082;2023-01-30T03:23:37;27.42;;;12.40;;
64188;SDS011;50493;50.970;10.082;2023-01-30T03:26:03;25.92;;;11.23;;
64188;SDS011;50493;50.970;10.082;2023-01-30T03:28:29;26.38;;;11.48;;
64188;SDS011;50493;50.970;10.082;2023-01-30T03:30:56;27.63;;;11.45;;
64188;SDS011;50493;50.970;10.082;2023-01-30T03:33:21;26.42;;;11.75;;
64188;SDS011;50493;50.970;10.082;2023-01-30T03:35:48;26.23;;;11.65;;
64188;SDS011;50493;50.970;10.082;2023-01-30T03:38:14;23.30;;;10.50;;
64188;SDS011;50493;50.970;10.082;2023-01-30T03:40:40;29.40;;;12.25;;
64188;SDS011;50493;50.970;10.082;2023-01-30T03:43:05;27.92;;;11.80;;
64188;SDS011;50493;50.970;10.082;2023-01-30T03:45:31;28.88;;;12.02;;
64188;SDS011;50493;50.970;10.082;2023-01-30T03:47:57;31.20;;;12.27;;
64188;SDS011;50493;50.970;10.082;2023-01-30T03:50:22;25.60;;;11.30;;
64188;SDS011;50493;50.970;10.082;2023-01-30T03:52:49;32.38;;;12.85;;
64188;SDS011;50493;50.970;10.082;2023-01-30T03:55:14;32.17;;;13.02;;
64188;SDS011;50493;50.970;10.082;2023-01-30T03:57:40;30.05;;;12.60;;
64188;SDS011;50493;50.970;10.082;2023-01-30T04:00:05;29.88;;;14.15;;
64188;SDS011;50493;50.970;10.082;2023-01-30T04:02:32;29.42;;;12.20;;
64188;SDS011;50493;50.970;10.082;2023-01-30T04:04:57;30.50;;;13.68;;
64188;SDS011;50493;50.970;10.082;2023-01-30T04:07:22;30.98;;;13.75;;
64188;SDS011;50493;50.970;10.082;2023-01-30T04:09:49;32.42;;;12.25;;
64188;SDS011;50493;50.970;10.082;2023-01-30T04:12:14;41.08;;;17.60;;
64188;SDS011;50493;50.970;10.082;2023-01-30T04:14:40;31.23;;;13.05;;
64188;SDS011;50493;50.970;10.082;2023-01-30T04:17:05;28.40;;;11.98;;
64188;SDS011;50493;50.970;10.082;2023-01-30T04:19:30;33.95;;;14.30;;
64188;SDS011;50493;50.970;10.082;2023-01-30T04:21:56;37.65;;;17.42;;
64188;SDS011;50493;50.970;10.082;2023-01-30T04:24:21;30.55;;;11.70;;
64188;SDS011;50493;50.970;10.082;2023-01-30T04:26:48;32.00;;;13.82;;
64188;SDS011;50493;50.970;10.082;2023-01-30T04:29:13;32.25;;;12.30;;
64188;SDS011;50493;50.970;10.082;2023-01-30T04:31:38;22.48;;;9.43;;
64188;SDS011;50493;50.970;10.082;2023-01-30T04:34:04;27.40;;;11.80;;
64188;SDS011;50493;50.970;10.082;2023-01-30T04:36:29;32.78;;;13.25;;
64188;SDS011;50493;50.970;10.082;2023-01-30T04:38:54;31.90;;;13.68;;
64188;SDS011;50493;50.970;10.082;2023-01-30T04:41:22;36.28;;;14.20;;
64188;SDS011;50493;50.970;10.082;2023-01-30T04:43:48;27.75;;;11.65;;
64188;SDS011;50493;50.970;10.082;2023-01-30T04:46:14;31.30;;;12.25;;
64188;SDS011;50493;50.970;10.082;2023-01-30T04:48:39;31.48;;;13.05;;
64188;SDS011;50493;50.970;10.082;2023-01-30T04:51:04;27.23;;;10.48;;
64188;SDS011;50493;50.970;10.082;2023-01-30T04:53:30;32.25;;;14.02;;
64188;SDS011;50493;50.970;10.082;2023-01-30T04:55:55;26.97;;;12.10;;
64188;SDS011;50493;50.970;10.082;2023-01-30T04:58:21;27.40;;;12.15;;
64188;SDS011;50493;50.970;10.082;2023-01-30T05:00:48;26.30;;;12.32;;
64188;SDS011;50493;50.970;10.082;2023-01-30T05:03:13;29.67;;;12.77;;
64188;SDS011;50493;50.970;10.082;2023-01-30T05:05:39;31.45;;;12.98;;
64188;SDS011;50493;50.970;10.082;2023-01-30T05:08:05;25.33;;;10.40;;
64188;SDS011;50493;50.970;10.082;2023-01-30T05:10:31;21.98;;;8.35;;
64188;SDS011;50493;50.970;10.082;2023-01-30T05:13:00;23.65;;;11.63;;
64188;SDS011;50493;50.970;10.082;2023-01-30T05:15:26;20.70;;;9.02;;
64188;SDS011;50493;50.970;10.082;2023-01-30T05:17:52;27.23;;;11.50;;
64188;SDS011;50493;50.970;10.082;2023-01-30T05:20:18;22.33;;;10.32;;
64188;SDS011;50493;50.970;10.082;2023-01-30T05:22:43;24.38;;;10.35;;
64188;SDS011;50493;50.970;10.082;2023-01-30T05:25:08;27.13;;;11.13;;
64188;SDS011;50493;50.970;10.082;2023-01-30T05:27:34;25.58;;;11.32;;
64188;SDS011;50493;50.970;10.082;2023-01-30T05:29:59;22.92;;;10.60;;
64188;SDS011;50493;50.970;10.082;2023-01-30T05:32:25;26.88;;;11.43;;
64188;SDS011;50493;50.970;10.082;2023-01-30T05:34:52;29.15;;;12.07;;
64188;SDS011;50493;50.970;10.082;2023-01-30T05:37:18;23.63;;;10.60;;
64188;SDS011;50493;50.970;10.082;2023-01-30T05:39:43;24.75;;;10.70;;
64188;SDS011;50493;50.970;10.082;2023-01-30T05:42:08;17.42;;;8.23;;
64188;SDS011;50493;50.970;10.082;2023-01-30T05:44:33;25.58;;;12.35;;
64188;SDS011;50493;50.970;10.082;2023-01-30T05:46:59;26.52;;;11.05;;
64188;SDS011;50493;50.970;10.082;2023-01-30T05:49:24;27.55;;;12.18;;
64188;SDS011;50493;50.970;10.082;2023-01-30T05:51:51;25.63;;;10.90;;
64188;SDS011;50493;50.970;10.082;2023-01-30T05:54:16;25.20;;;10.68;;
64188;SDS011;50493;50.970;10.082;2023-01-30T05:56:41;21.77;;;8.80;;
64188;SDS011;50493;50.970;10.082;2023-01-30T05:59:08;17.83;;;6.65;;
64188;SDS011;50493;50.970;10.082;2023-01-30T06:01:35;18.88;;;7.90;;
64188;SDS011;50493;50.970;10.082;2023-01-30T06:04:00;22.00;;;9.77;;
64188;SDS011;50493;50.970;10.082;2023-01-30T06:06:26;16.63;;;7.68;;
64188;SDS011;50493;50.970;10.082;2023-01-30T06:08:54;15.73;;;6.53;;
64188;SDS011;50493;50.970;10.082;2023-01-30T06:11:20;16.65;;;7.85;;
64188;SDS011;50493;50.970;10.082;2023-01-30T06:13:46;20.60;;;10.25;;
64188;SDS011;50493;50.970;10.082;2023-01-30T06:16:12;21.65;;;9.27;;
64188;SDS011;50493;50.970;10.082;2023-01-30T06:18:39;15.85;;;7.28;;
64188;SDS011;50493;50.970;10.082;2023-01-30T06:21:05;17.40;;;7.30;;
64188;SDS011;50493;50.970;10.082;2023-01-30T06:23:31;16.40;;;8.02;;
64188;SDS011;50493;50.970;10.082;2023-01-30T06:25:58;17.08;;;7.70;;
64188;SDS011;50493;50.970;10.082;2023-01-30T06:28:24;15.73;;;7.43;;
64188;SDS011;50493;50.970;10.082;2023-01-30T06:30:50;15.85;;;6.75;;
64188;SDS011;50493;50.970;10.082;2023-01-30T06:33:16;11.80;;;5.57;;
64188;SDS011;50493;50.970;10.082;2023-01-30T06:35:41;12.15;;;5.13;;
64188;SDS011;50493;50.970;10.082;2023-01-30T06:38:08;14.38;;;6.68;;
64188;SDS011;50493;50.970;10.082;2023-01-30T06:40:35;15.88;;;6.68;;
64188;SDS011;50493;50.970;10.082;2023-01-30T06:43:02;18.92;;;7.50;;
64188;SDS011;50493;50.970;10.082;2023-01-30T06:45:27;14.80;;;6.82;;
64188;SDS011;50493;50.970;10.082;2023-01-30T06:47:53;13.80;;;6.78;;
64188;SDS011;50493;50.970;10.082;2023-01-30T06:50:20;17.45;;;8.63;;
64188;SDS011;50493;50.970;10.082;2023-01-30T06:52:47;15.38;;;7.28;;
64188;SDS011;50493;50.970;10.082;2023-01-30T06:55:14;14.85;;;7.05;;
64188;SDS011;50493;50.970;10.082;2023-01-30T06:57:41;14.80;;;7.55;;
64188;SDS011;50493;50.970;10.082;2023-01-30T07:00:10;15.48;;;7.38;;
64188;SDS011;50493;50.970;10.082;2023-01-30T07:05:04;15.90;;;7.45;;
64188;SDS011;50493;50.970;10.082;2023-01-30T07:07:31;12.52;;;5.70;;
64188;SDS011;50493;50.970;10.082;2023-01-30T07:09:57;15.32;;;6.55;;
64188;SDS011;50493;50.970;10.082;2023-01-30T07:12:23;14.40;;;7.05;;
64188;SDS011;50493;50.970;10.082;2023-01-30T07:14:48;12.20;;;6.15;;
64188;SDS011;50493;50.970;10.082;2023-01-30T07:17:15;11.77;;;5.00;;
64188;SDS011;50493;50.970;10.082;2023-01-30T07:19:41;13.40;;;7.15;;
64188;SDS011;50493;50.970;10.082;2023-01-30T07:22:06;16.17;;;7.15;;
64188;SDS011;50493;50.970;10.082;2023-01-30T07:24:32;13.05;;;6.30;;
64188;SDS011;50493;50.970;10.082;2023-01-30T07:26:57;10.70;;;4.80;;
64188;SDS011;50493;50.970;10.082;2023-01-30T07:29:22;11.03;;;5.37;;
64188;SDS011;50493;50.970;10.082;2023-01-30T07:31:47;21.63;;;9.95;;
64188;SDS011;50493;50.970;10.082;2023-01-30T07:34:14;14.43;;;7.05;;
64188;SDS011;50493;50.970;10.082;2023-01-30T07:36:39;15.80;;;7.45;;
64188;SDS011;50493;50.970;10.082;2023-01-30T07:39:05;12.48;;;5.25;;
64188;SDS011;50493;50.970;10.082;2023-01-30T07:41:30;13.85;;;6.65;;
64188;SDS011;50493;50.970;10.082;2023-01-30T07:43:55;13.57;;;6.07;;
64188;SDS011;50493;50.970;10.082;2023-01-30T07:46:21;11.90;;;6.28;;
64188;SDS011;50493;50.970;10.082;2023-01-30T07:48:46;11.60;;;5.10;;
64188;SDS011;50493;50.970;10.082;2023-01-30T07:51:13;15.20;;;6.80;;
64188;SDS011;50493;50.970;10.082;2023-01-30T07:53:38;14.27;;;6.55;;
64188;SDS011;50493;50.970;10.082;2023-01-30T07:56:05;14.30;;;6.82;;
64188;SDS011;50493;50.970;10.082;2023-01-30T07:58:31;11.82;;;5.50;;
64188;SDS011;50493;50.970;10.082;2023-01-30T08:00:56;11.57;;;5.85;;
64188;SDS011;50493;50.970;10.082;2023-01-30T08:03:22;14.90;;;6.57;;
64188;SDS011;50493;50.970;10.082;2023-01-30T08:05:47;10.73;;;6.28;;
64188;SDS011;50493;50.970;10.082;2023-01-30T08:08:14;12.70;;;5.68;;
64188;SDS011;50493;50.970;10.082;2023-01-30T08:10:39;13.27;;;6.38;;
64188;SDS011;50493;50.970;10.082;2023-01-30T08:13:05;13.57;;;6.35;;
64188;SDS011;50493;50.970;10.082;2023-01-30T08:15:30;11.40;;;5.67;;
64188;SDS011;50493;50.970;10.082;2023-01-30T08:17:57;9.88;;;4.38;;
64188;SDS011;50493;50.970;10.082;2023-01-30T08:20:24;11.18;;;5.65;;
64188;SDS011;50493;50.970;10.082;2023-01-30T08:22:50;13.23;;;5.10;;
64188;SDS011;50493;50.970;10.082;2023-01-30T08:25:17;12.48;;;5.43;;
64188;SDS011;50493;50.970;10.082;2023-01-30T08:27:43;14.00;;;6.75;;
64188;SDS011;50493;50.970;10.082;2023-01-30T08:30:09;11.65;;;4.38;;
64188;SDS011;50493;50.970;10.082;2023-01-30T08:32:35;13.68;;;6.05;;
64188;SDS011;50493;50.970;10.082;2023-01-30T08:35:00;13.07;;;6.03;;
64188;SDS011;50493;50.970;10.082;2023-01-30T08:37:25;13.20;;;7.07;;
64188;SDS011;50493;50.970;10.082;2023-01-30T08:39:51;12.50;;;5.83;;
64188;SDS011;50493;50.970;10.082;2023-01-30T08:42:20;12.35;;;6.45;;
64188;SDS011;50493;50.970;10.082;2023-01-30T08:44:45;12.75;;;5.78;;
64188;SDS011;50493;50.970;10.082;2023-01-30T08:47:11;11.95;;;5.32;;
64188;SDS011;50493;50.970;10.082;2023-01-30T08:49:36;10.90;;;4.38;;
64188;SDS011;50493;50.970;10.082;2023-01-30T08:52:01;11.52;;;5.15;;
64188;SDS011;50493;50.970;10.082;2023-01-30T08:54:27;13.63;;;5.60;;
64188;SDS011;50493;50.970;10.082;2023-01-30T08:56:52;9.75;;;4.75;;
64188;SDS011;50493;50.970;10.082;2023-01-30T08:59:19;11.45;;;5.43;;
64188;SDS011;50493;50.970;10.082;2023-01-30T09:01:44;12.00;;;6.38;;
64188;SDS011;50493;50.970;10.082;2023-01-30T09:04:10;10.95;;;5.40;;
64188;SDS011;50493;50.970;10.082;2023-01-30T09:06:35;10.43;;;5.13;;
64188;SDS011;50493;50.970;10.082;2023-01-30T09:09:00;12.98;;;6.35;;
64188;SDS011;50493;50.970;10.082;2023-01-30T09:11:26;9.05;;;4.07;;
64188;SDS011;50493;50.970;10.082;2023-01-30T09:13:51;13.63;;;6.22;;
64188;SDS011;50493;50.970;10.082;2023-01-30T09:16:18;13.02;;;5.88;;
64188;SDS011;50493;50.970;10.082;2023-01-30T09:18:43;12.68;;;5.85;;
64188;SDS011;50493;50.970;10.082;2023-01-30T09:21:10;10.88;;;5.53;;
64188;SDS011;50493;50.970;10.082;2023-01-30T09:23:36;9.32;;;5.00;;
64188;SDS011;50493;50.970;10.082;2023-01-30T09:26:02;12.05;;;6.20;;
64188;SDS011;50493;50.970;10.082;2023-01-30T09:28:28;9.00;;;4.07;;
64188;SDS011;50493;50.970;10.082;2023-01-30T09:30:55;8.82;;;3.95;;
64188;SDS011;50493;50.970;10.082;2023-01-30T09:33:22;12.60;;;5.55;;
64188;SDS011;50493;50.970;10.082;2023-01-30T09:35:48;10.50;;;5.15;;
64188;SDS011;50493;50.970;10.082;2023-01-30T09:38:13;8.70;;;4.10;;
64188;SDS011;50493;50.970;10.082;2023-01-30T09:40:42;7.90;;;4.40;;
64188;SDS011;50493;50.970;10.082;2023-01-30T09:43:26;13.45;;;5.13;;
64188;SDS011;50493;50.970;10.082;2023-01-30T09:46:07;8.15;;;4.15;;
64188;SDS011;50493;50.970;10.082;2023-01-30T09:48:46;9.98;;;5.55;;
64188;SDS011;50493;50.970;10.082;2023-01-30T09:51:42;10.43;;;5.50;;
64188;SDS011;50493;50.970;10.082;2023-01-30T09:54:16;7.97;;;4.15;;
64188;SDS011;50493;50.970;10.082;2023-01-30T09:56:48;8.57;;;4.20;;
64188;SDS011;50493;50.970;10.082;2023-01-30T09:59:22;11.55;;;6.10;;
64188;SDS011;50493;50.970;10.082;2023-01-30T10:01:55;10.82;;;5.32;;
64188;SDS011;50493;50.970;10.082;2023-01-30T10:04:31;8.98;;;4.55;;
64188;SDS011;50493;50.970;10.082;2023-01-30T10:07:07;10.80;;;4.90;;
64188;SDS011;50493;50.970;10.082;2023-01-30T10:09:45;10.88;;;5.35;;
64188;SDS011;50493;50.970;10.082;2023-01-30T10:12:22;10.48;;;4.63;;
64188;SDS011;50493;50.970;10.082;2023-01-30T10:15:05;9.02;;;4.28;;
64188;SDS011;50493;50.970;10.082;2023-01-30T10:17:47;8.77;;;4.75;;
64188;SDS011;50493;50.970;10.082;2023-01-30T10:20:28;11.75;;;5.45;;
64188;SDS011;50493;50.970;10.082;2023-01-30T10:23:03;9.93;;;4.68;;
64188;SDS011;50493;50.970;10.082;2023-01-30T10:25:43;9.05;;;4.20;;
64188;SDS011;50493;50.970;10.082;2023-01-30T10:28:13;11.70;;;5.43;;
64188;SDS011;50493;50.970;10.082;2023-01-30T10:33:11;9.68;;;4.95;;
64188;SDS011;50493;50.970;10.082;2023-01-30T10:35:54;12.13;;;5.35;;
64188;SDS011;50493;50.970;10.082;2023-01-30T10:38:25;10.18;;;4.57;;
64188;SDS011;50493;50.970;10.082;2023-01-30T10:40:57;11.73;;;5.00;;
64188;SDS011;50493;50.970;10.082;2023-01-30T10:43:26;9.35;;;4.45;;
64188;SDS011;50493;50.970;10.082;2023-01-30T10:45:58;10.43;;;5.15;;
64188;SDS011;50493;50.970;10.082;2023-01-30T10:48:42;10.40;;;5.20;;
64188;SDS011;50493;50.970;10.082;2023-01-30T10:51:19;11.07;;;5.25;;
64188;SDS011;50493;50.970;10.082;2023-01-30T10:53:53;10.73;;;5.32;;
64188;SDS011;50493;50.970;10.082;2023-01-30T10:56:24;14.27;;;6.20;;
64188;SDS011;50493;50.970;10.082;2023-01-30T10:58:59;12.35;;;6.13;;
64188;SDS011;50493;50.970;10.082;2023-01-30T11:01:36;13.32;;;6.63;;
64188;SDS011;50493;50.970;10.082;2023-01-30T11:04:12;13.45;;;7.00;;
64188;SDS011;50493;50.970;10.082;2023-01-30T11:06:49;14.27;;;6.53;;
64188;SDS011;50493;50.970;10.082;2023-01-30T11:09:16;12.02;;;6.25;;
64188;SDS011;50493;50.970;10.082;2023-01-30T11:11:45;12.20;;;4.63;;
64188;SDS011;50493;50.970;10.082;2023-01-30T11:14:12;9.88;;;4.60;;
64188;SDS011;50493;50.970;10.082;2023-01-30T11:16:43;12.13;;;4.65;;
64188;SDS011;50493;50.970;10.082;2023-01-30T11:19:11;10.98;;;5.13;;
64188;SDS011;50493;50.970;10.082;2023-01-30T11:21:37;8.45;;;3.65;;
64188;SDS011;50493;50.970;10.082;2023-01-30T11:24:12;11.48;;;5.13;;
64188;SDS011;50493;50.970;10.082;2023-01-30T11:26:40;12.15;;;5.43;;
64188;SDS011;50493;50.970;10.082;2023-01-30T11:29:23;9.27;;;5.07;;
64188;SDS011;50493;50.970;10.082;2023-01-30T11:31:51;9.77;;;5.47;;
64188;SDS011;50493;50.970;10.082;2023-01-30T11:34:18;12.27;;;5.93;;
64188;SDS011;50493;50.970;10.082;2023-01-30T11:36:45;9.77;;;4.65;;
64188;SDS011;50493;50.970;10.082;2023-01-30T11:39:19;10.23;;;5.05;;
64188;SDS011;50493;50.970;10.082;2023-01-30T11:41:55;8.50;;;4.22;;
64188;SDS011;50493;50.970;10.082;2023-01-30T11:44:26;8.07;;;3.90;;
64188;SDS011;50493;50.970;10.082;2023-01-30T11:46:53;9.50;;;4.50;;
64188;SDS011;50493;50.970;10.082;2023-01-30T11:49:22;7.80;;;4.07;;
64188;SDS011;50493;50.970;10.082;2023-01-30T11:51:50;8.40;;;4.65;;
64188;SDS011;50493;50.970;10.082;2023-01-30T11:54:20;8.32;;;4.57;;
64188;SDS011;50493;50.970;10.082;2023-01-30T11:56:52;5.53;;;3.00;;
64188;SDS011;50493;50.970;10.082;2023-01-30T11:59:22;6.97;;;3.22;;
64188;SDS011;50493;50.970;10.082;2023-01-30T12:01:50;6.00;;;3.38;;
64188;SDS011;50493;50.970;10.082;2023-01-30T12:04:16;6.32;;;3.05;;
64188;SDS011;50493;50.970;10.082;2023-01-30T12:06:44;6.80;;;3.50;;
64188;SDS011;50493;50.970;10.082;2023-01-30T12:11:55;7.82;;;3.25;;
64188;SDS011;50493;50.970;10.082;2023-01-30T12:14:24;6.25;;;3.28;;
64188;SDS011;50493;50.970;10.082;2023-01-30T12:17:01;7.28;;;3.95;;
64188;SDS011;50493;50.970;10.082;2023-01-30T12:19:35;7.90;;;3.85;;
64188;SDS011;50493;50.970;10.082;2023-01-30T12:22:11;7.40;;;4.13;;
64188;SDS011;50493;50.970;10.082;2023-01-30T12:24:49;7.40;;;3.67;;
64188;SDS011;50493;50.970;10.082;2023-01-30T12:27:24;8.70;;;4.20;;
64188;SDS011;50493;50.970;10.082;2023-01-30T12:29:58;11.27;;;4.00;;
64188;SDS011;50493;50.970;10.082;2023-01-30T12:32:29;7.82;;;3.80;;
64188;SDS011;50493;50.970;10.082;2023-01-30T12:34:55;8.38;;;3.30;;
64188;SDS011;50493;50.970;10.082;2023-01-30T12:37:26;7.03;;;3.03;;
64188;SDS011;50493;50.970;10.082;2023-01-30T12:40:05;7.28;;;4.05;;
64188;SDS011;50493;50.970;10.082;2023-01-30T12:42:50;6.10;;;2.88;;
64188;SDS011;50493;50.970;10.082;2023-01-30T12:45:30;6.40;;;2.85;;
64188;SDS011;50493;50.970;10.082;2023-01-30T12:50:54;6.85;;;3.55;;
64188;SDS011;50493;50.970;10.082;2023-01-30T12:53:33;6.53;;;3.67;;
64188;SDS011;50493;50.970;10.082;2023-01-30T12:56:16;7.43;;;3.17;;
64188;SDS011;50493;50.970;10.082;2023-01-30T12:59:04;5.13;;;2.05;;
64188;SDS011;50493;50.970;10.082;2023-01-30T13:01:37;8.73;;;2.50;;
64188;SDS011;50493;50.970;10.082;2023-01-30T13:04:11;8.48;;;3.92;;
64188;SDS011;50493;50.970;10.082;2023-01-30T13:06:52;9.45;;;3.53;;
64188;SDS011;50493;50.970;10.082;2023-01-30T13:12:03;6.28;;;2.65;;
64188;SDS011;50493;50.970;10.082;2023-01-30T13:14:37;8.95;;;3.25;;
64188;SDS011;50493;50.970;10.082;2023-01-30T13:17:15;7.32;;;3.00;;
64188;SDS011;50493;50.970;10.082;2023-01-30T13:19:55;8.20;;;2.80;;
64188;SDS011;50493;50.970;10.082;2023-01-30T13:22:29;8.75;;;3.20;;
64188;SDS011;50493;50.970;10.082;2023-01-30T13:25:07;6.78;;;2.95;;
64188;SDS011;50493;50.970;10.082;2023-01-30T13:27:46;10.90;;;3.17;;
64188;SDS011;50493;50.970;10.082;2023-01-30T13:30:16;9.27;;;3.25;;
64188;SDS011;50493;50.970;10.082;2023-01-30T13:32:44;7.63;;;2.40;;
64188;SDS011;50493;50.970;10.082;2023-01-30T13:35:14;8.27;;;2.95;;
64188;SDS011;50493;50.970;10.082;2023-01-30T13:37:42;7.18;;;2.92;;
64188;SDS011;50493;50.970;10.082;2023-01-30T13:40:12;9.05;;;3.55;;
64188;SDS011;50493;50.970;10.082;2023-01-30T13:42:42;10.05;;;3.08;;
64188;SDS011;50493;50.970;10.082;2023-01-30T13:45:14;8.30;;;2.70;;
64188;SDS011;50493;50.970;10.082;2023-01-30T13:47:45;6.00;;;2.30;;
64188;SDS011;50493;50.970;10.082;2023-01-30T13:50:19;6.20;;;2.38;;
64188;SDS011;50493;50.970;10.082;2023-01-30T13:52:55;7.38;;;2.65;;
64188;SDS011;50493;50.970;10.082;2023-01-30T13:55:30;8.27;;;2.72;;
64188;SDS011;50493;50.970;10.082;2023-01-30T13:58:07;9.35;;;2.47;;
64188;SDS011;50493;50.970;10.082;2023-01-30T14:00:50;7.30;;;2.25;;
64188;SDS011;50493;50.970;10.082;2023-01-30T14:03:24;8.13;;;2.65;;
64188;SDS011;50493;50.970;10.082;2023-01-30T14:06:01;7.28;;;1.85;;
64188;SDS011;50493;50.970;10.082;2023-01-30T14:08:34;7.22;;;2.22;;
64188;SDS011;50493;50.970;10.082;2023-01-30T14:11:16;8.23;;;2.58;;
64188;SDS011;50493;50.970;10.082;2023-01-30T14:14:04;8.07;;;2.10;;
64188;SDS011;50493;50.970;10.082;2023-01-30T14:16:56;11.27;;;2.15;;
64188;SDS011;50493;50.970;10.082;2023-01-30T14:19:41;7.07;;;2.08;;
64188;SDS011;50493;50.970;10.082;2023-01-30T14:22:32;8.23;;;1.90;;
64188;SDS011;50493;50.970;10.082;2023-01-30T14:25:32;6.90;;;1.85;;
64188;SDS011;50493;50.970;10.082;2023-01-30T14:31:13;5.97;;;2.25;;
64188;SDS011;50493;50.970;10.082;2023-01-30T14:40:36;8.63;;;2.17;;
64188;SDS011;50493;50.970;10.082;2023-01-30T14:49:27;5.80;;;1.75;;
64188;SDS011;50493;50.970;10.082;2023-01-30T14:52:01;7.40;;;2.00;;
64188;SDS011;50493;50.970;10.082;2023-01-30T14:54:34;8.63;;;1.92;;
64188;SDS011;50493;50.970;10.082;2023-01-30T14:57:17;8.43;;;2.75;;
64188;SDS011;50493;50.970;10.082;2023-01-30T14:59:59;10.77;;;2.47;;
64188;SDS011;50493;50.970;10.082;2023-01-30T15:02:34;7.05;;;2.00;;
64188;SDS011;50493;50.970;10.082;2023-01-30T15:05:08;11.00;;;2.40;;
64188;SDS011;50493;50.970;10.082;2023-01-30T15:07:44;7.10;;;2.10;;
64188;SDS011;50493;50.970;10.082;2023-01-30T15:10:25;8.25;;;2.55;;